createdAt,value
2018-12-17T00:00:43.402Z,3.6
2018-12-17T00:01:45.423Z,3.6
2018-12-17T00:02:47.318Z,3.7
2018-12-17T00:03:49.264Z,3.6
2018-12-17T00:04:51.175Z,3.7
2018-12-17T00:05:53.129Z,3.6
2018-12-17T00:06:55.109Z,3.6
2018-12-17T00:07:57.178Z,3.6
2018-12-17T00:08:59.125Z,3.6
2018-12-17T00:10:01.212Z,3.6
2018-12-17T00:11:03.081Z,3.6
2018-12-17T00:12:04.972Z,3.6
2018-12-17T00:13:06.930Z,3.6
2018-12-17T00:14:08.432Z,3.7
2018-12-17T00:15:09.893Z,3.7
2018-12-17T00:16:11.672Z,3.7
2018-12-17T00:17:13.663Z,3.8
2018-12-17T00:18:15.521Z,3.8
2018-12-17T00:19:17.400Z,3.8
2018-12-17T00:20:19.331Z,3.7
2018-12-17T00:21:21.282Z,3.8
2018-12-17T00:22:23.171Z,3.8
2018-12-17T00:23:25.016Z,3.9
2018-12-17T00:24:26.614Z,3.9
2018-12-17T00:25:28.049Z,3.9
2018-12-17T00:26:29.531Z,4.0
2018-12-17T00:27:30.995Z,4.0
2018-12-17T00:28:32.434Z,4.0
2018-12-17T00:29:33.917Z,4.1
2018-12-17T00:30:35.338Z,4.1
2018-12-17T00:31:36.950Z,4.1
2018-12-17T00:32:38.805Z,4.2
2018-12-17T00:33:40.933Z,4.3
2018-12-17T00:34:42.800Z,4.2
2018-12-17T00:35:44.736Z,4.2
2018-12-17T00:36:46.744Z,4.3
2018-12-17T00:37:48.648Z,4.3
2018-12-17T00:38:50.529Z,4.2
2018-12-17T00:39:52.561Z,4.2
2018-12-17T00:40:54.445Z,4.1
2018-12-17T00:41:56.389Z,4.1
2018-12-17T00:42:58.340Z,4.1
2018-12-17T00:44:00.455Z,4.1
2018-12-17T00:45:02.458Z,4.1
2018-12-17T00:46:04.577Z,4.0
2018-12-17T00:47:06.592Z,4.1
2018-12-17T00:48:08.655Z,4.1
2018-12-17T00:49:10.656Z,4.1
2018-12-17T00:50:12.771Z,4.1
2018-12-17T00:51:14.866Z,4.1
2018-12-17T00:52:16.770Z,4.2
2018-12-17T00:53:18.690Z,4.2
2018-12-17T00:54:20.663Z,4.2
2018-12-17T00:55:22.697Z,4.2
2018-12-17T00:56:24.642Z,4.2
2018-12-17T00:57:26.650Z,4.1
2018-12-17T00:58:28.631Z,4.2
2018-12-17T00:59:30.626Z,4.3
2018-12-17T01:00:32.593Z,4.2
2018-12-17T01:01:34.634Z,4.3
2018-12-17T01:02:36.560Z,4.2
2018-12-17T01:03:38.582Z,4.3
2018-12-17T01:04:40.617Z,4.3
2018-12-17T01:05:42.655Z,4.2
2018-12-17T01:06:44.612Z,4.3
2018-12-17T01:07:46.646Z,4.3
2018-12-17T01:08:48.619Z,4.3
2018-12-17T01:09:50.661Z,4.3
2018-12-17T01:10:52.743Z,4.3
2018-12-17T01:11:54.686Z,4.3
2018-12-17T01:12:56.646Z,4.3
2018-12-17T01:13:58.768Z,4.4
2018-12-17T01:15:00.726Z,4.3
2018-12-17T01:16:02.768Z,4.4
2018-12-17T01:17:04.731Z,4.4
2018-12-17T01:18:06.622Z,4.4
2018-12-17T01:19:08.503Z,4.4
2018-12-17T01:20:10.451Z,4.4
2018-12-17T01:21:12.393Z,4.4
2018-12-17T01:22:14.415Z,4.5
2018-12-17T01:23:16.399Z,4.5
2018-12-17T01:24:18.436Z,4.7
2018-12-17T01:25:20.467Z,4.7
2018-12-17T01:26:22.340Z,4.7
2018-12-17T01:27:24.342Z,4.7
2018-12-17T01:28:26.320Z,4.7
2018-12-17T01:29:28.329Z,4.7
2018-12-17T01:30:30.273Z,4.8
2018-12-17T01:31:32.294Z,4.8
2018-12-17T01:32:34.262Z,4.9
2018-12-17T01:33:36.198Z,4.9
2018-12-17T01:34:38.207Z,4.9
2018-12-17T01:35:40.191Z,4.8
2018-12-17T01:36:42.072Z,4.8
2018-12-17T01:37:43.976Z,4.9
2018-12-17T01:38:45.922Z,4.9
2018-12-17T01:39:47.853Z,4.9
2018-12-17T01:40:49.734Z,4.9
2018-12-17T01:41:51.541Z,4.9
2018-12-17T01:42:53.437Z,5.0
2018-12-17T01:43:55.480Z,5.0
2018-12-17T01:44:57.481Z,5.0
2018-12-17T01:45:58.907Z,5.1
2018-12-17T01:47:00.343Z,5.1
2018-12-17T01:48:01.849Z,5.1
2018-12-17T01:49:03.533Z,5.2
2018-12-17T01:50:05.185Z,5.2
2018-12-17T01:51:06.881Z,5.2
2018-12-17T01:52:08.540Z,5.3
2018-12-17T01:53:10.282Z,5.3
2018-12-17T01:54:11.946Z,5.3
2018-12-17T01:55:13.713Z,5.3
2018-12-17T01:56:15.372Z,5.3
2018-12-17T01:57:17.097Z,5.3
2018-12-17T01:58:18.795Z,5.3
2018-12-17T01:59:20.424Z,5.3
2018-12-17T02:00:22.176Z,5.3
2018-12-17T02:01:23.867Z,5.3
2018-12-17T02:02:25.496Z,5.3
2018-12-17T02:03:27.245Z,5.4
2018-12-17T02:04:28.935Z,5.4
2018-12-17T02:05:30.604Z,5.4
2018-12-17T02:06:32.119Z,5.5
2018-12-17T02:07:33.856Z,5.4
2018-12-17T02:08:35.562Z,5.4
2018-12-17T02:09:37.233Z,5.5
2018-12-17T02:10:38.896Z,5.5
2018-12-17T02:11:40.555Z,5.5
2018-12-17T02:12:42.296Z,5.6
2018-12-17T02:13:44.005Z,5.5
2018-12-17T02:14:45.800Z,5.5
2018-12-17T02:15:47.459Z,5.5
2018-12-17T02:16:49.187Z,5.5
2018-12-17T02:17:50.887Z,5.4
2018-12-17T02:18:52.492Z,5.4
2018-12-17T02:19:54.047Z,5.4
2018-12-17T02:20:55.772Z,5.3
2018-12-17T02:21:57.547Z,5.4
2018-12-17T02:22:59.204Z,5.4
2018-12-17T02:24:00.912Z,5.4
2018-12-17T02:25:02.654Z,5.3
2018-12-17T02:26:04.340Z,5.4
2018-12-17T02:27:06.151Z,5.3
2018-12-17T02:28:07.947Z,5.3
2018-12-17T02:29:09.696Z,5.3
2018-12-17T02:30:11.243Z,5.2
2018-12-17T02:31:12.894Z,5.2
2018-12-17T02:32:14.435Z,5.2
2018-12-17T02:33:16.096Z,5.1
2018-12-17T02:34:17.806Z,5.2
2018-12-17T02:35:19.503Z,5.1
2018-12-17T02:36:21.310Z,5.2
2018-12-17T02:37:22.963Z,5.1
2018-12-17T02:38:24.705Z,5.2
2018-12-17T02:39:26.360Z,5.2
2018-12-17T02:40:28.187Z,5.2
2018-12-17T02:41:29.741Z,5.2
2018-12-17T02:42:31.283Z,5.1
2018-12-17T02:43:32.850Z,5.2
2018-12-17T02:44:34.548Z,5.1
2018-12-17T02:45:36.248Z,5.1
2018-12-17T02:46:37.999Z,5.1
2018-12-17T02:47:39.709Z,5.1
2018-12-17T02:48:41.377Z,5.1
2018-12-17T02:49:43.057Z,5.2
2018-12-17T02:50:44.834Z,5.2
2018-12-17T02:51:46.510Z,5.1
2018-12-17T02:52:48.204Z,5.1
2018-12-17T02:53:49.896Z,5.0
2018-12-17T02:54:51.488Z,5.0
2018-12-17T02:55:53.152Z,5.0
2018-12-17T02:56:54.895Z,5.0
2018-12-17T02:57:56.618Z,4.9
2018-12-17T02:58:58.142Z,4.9
2018-12-17T02:59:59.846Z,4.9
2018-12-17T03:01:01.369Z,5.0
2018-12-17T03:02:02.763Z,4.9
2018-12-17T03:03:04.421Z,5.0
2018-12-17T03:04:06.150Z,4.9
2018-12-17T03:05:07.913Z,4.9
2018-12-17T03:06:09.654Z,4.9
2018-12-17T03:07:11.129Z,4.9
2018-12-17T03:08:12.811Z,4.9
2018-12-17T03:09:14.558Z,5.0
2018-12-17T03:10:16.355Z,4.9
2018-12-17T03:11:18.072Z,4.9
2018-12-17T03:12:19.725Z,4.8
2018-12-17T03:13:21.338Z,4.8
2018-12-17T03:14:23.022Z,4.8
2018-12-17T03:15:24.764Z,4.8
2018-12-17T03:16:26.485Z,4.7
2018-12-17T03:17:28.156Z,4.7
2018-12-17T03:18:29.790Z,4.8
2018-12-17T03:19:31.522Z,4.7
2018-12-17T03:20:33.260Z,4.7
2018-12-17T03:21:34.880Z,4.6
2018-12-17T03:22:36.617Z,4.6
2018-12-17T03:23:38.276Z,4.6
2018-12-17T03:24:39.969Z,4.7
2018-12-17T03:25:41.690Z,4.7
2018-12-17T03:26:43.291Z,4.7
2018-12-17T03:27:44.984Z,4.7
2018-12-17T03:28:51.704Z,4.7
2018-12-17T03:29:48.294Z,4.7
2018-12-17T03:30:50.014Z,4.6
2018-12-17T03:31:51.723Z,4.7
2018-12-17T03:32:53.473Z,4.7
2018-12-17T03:33:55.180Z,4.7
2018-12-17T03:34:56.927Z,4.7
2018-12-17T03:35:58.622Z,4.7
2018-12-17T03:37:00.153Z,4.7
2018-12-17T03:38:01.746Z,4.7
2018-12-17T03:39:03.221Z,4.6
2018-12-17T03:40:04.716Z,4.7
2018-12-17T03:41:06.147Z,4.6
2018-12-17T03:42:07.673Z,4.7
2018-12-17T03:43:09.339Z,4.6
2018-12-17T03:44:11.077Z,4.6
2018-12-17T03:45:12.761Z,4.6
2018-12-17T03:46:14.529Z,4.5
2018-12-17T03:47:16.204Z,4.6
2018-12-17T03:48:18.010Z,4.4
2018-12-17T03:49:19.409Z,4.5
2018-12-17T03:50:21.111Z,4.6
2018-12-17T03:51:22.877Z,4.4
2018-12-17T03:52:24.564Z,4.4
2018-12-17T03:53:26.321Z,4.4
2018-12-17T03:54:27.992Z,4.4
2018-12-17T03:55:29.397Z,4.4
2018-12-17T03:56:30.827Z,4.4
2018-12-17T03:57:32.228Z,4.4
2018-12-17T03:58:33.944Z,4.4
2018-12-17T03:59:35.639Z,4.5
2018-12-17T04:00:37.372Z,4.5
2018-12-17T04:01:39.103Z,4.4
2018-12-17T04:02:40.759Z,4.5
2018-12-17T04:03:42.503Z,4.6
2018-12-17T04:04:44.202Z,4.7
2018-12-17T04:05:45.807Z,4.7
2018-12-17T04:06:47.503Z,4.7
2018-12-17T04:07:49.190Z,4.7
2018-12-17T04:08:50.928Z,4.8
2018-12-17T04:09:52.606Z,4.8
2018-12-17T04:10:54.300Z,4.8
2018-12-17T04:11:55.912Z,4.9
2018-12-17T04:12:57.597Z,4.8
2018-12-17T04:13:59.328Z,4.8
2018-12-17T04:15:01.022Z,4.9
2018-12-17T04:16:02.684Z,4.8
2018-12-17T04:17:04.374Z,4.8
2018-12-17T04:18:06.030Z,4.8
2018-12-17T04:19:07.662Z,4.7
2018-12-17T04:20:09.355Z,4.8
2018-12-17T04:21:11.035Z,4.7
2018-12-17T04:22:12.715Z,4.8
2018-12-17T04:23:14.393Z,4.8
2018-12-17T04:24:16.079Z,4.7
2018-12-17T04:25:17.787Z,4.8
2018-12-17T04:26:19.491Z,4.7
2018-12-17T04:27:21.208Z,4.8
2018-12-17T04:28:22.867Z,4.8
2018-12-17T04:29:24.604Z,4.9
2018-12-17T04:30:26.328Z,4.8
2018-12-17T04:31:28.029Z,4.8
2018-12-17T04:32:29.662Z,4.8
2018-12-17T04:33:31.375Z,4.8
2018-12-17T04:34:33.099Z,4.8
2018-12-17T04:35:34.729Z,4.8
2018-12-17T04:36:36.264Z,4.9
2018-12-17T04:37:37.934Z,4.8
2018-12-17T04:38:39.635Z,4.8
2018-12-17T04:39:41.387Z,4.7
2018-12-17T04:40:43.117Z,4.8
2018-12-17T04:41:44.762Z,4.7
2018-12-17T04:42:46.167Z,4.7
2018-12-17T04:43:47.752Z,4.8
2018-12-17T04:44:49.369Z,4.7
2018-12-17T04:45:51.080Z,4.8
2018-12-17T04:46:52.478Z,4.7
2018-12-17T04:47:54.117Z,4.7
2018-12-17T04:48:55.750Z,4.7
2018-12-17T04:49:57.374Z,4.7
2018-12-17T04:50:58.784Z,4.7
2018-12-17T04:52:00.173Z,4.7
2018-12-17T04:53:01.842Z,4.7
2018-12-17T04:54:03.504Z,4.7
2018-12-17T04:55:05.130Z,4.7
2018-12-17T04:56:06.729Z,4.7
2018-12-17T04:57:08.382Z,4.7
2018-12-17T04:58:10.052Z,4.7
2018-12-17T04:59:14.526Z,4.7
2018-12-17T05:00:13.368Z,4.8
2018-12-17T05:01:15.069Z,4.7
2018-12-17T05:02:16.752Z,4.7
2018-12-17T05:03:18.176Z,4.8
2018-12-17T05:04:19.826Z,4.7
2018-12-17T05:05:21.487Z,4.8
2018-12-17T05:06:23.176Z,4.8
2018-12-17T05:07:24.709Z,4.8
2018-12-17T05:08:26.457Z,4.9
2018-12-17T05:09:29.066Z,4.9
2018-12-17T05:10:30.767Z,4.9
2018-12-17T05:11:32.386Z,4.9
2018-12-17T05:12:33.909Z,4.9
2018-12-17T05:13:35.602Z,5.0
2018-12-17T05:14:37.386Z,5.0
2018-12-17T05:15:39.041Z,5.0
2018-12-17T05:16:40.707Z,5.0
2018-12-17T05:17:42.297Z,5.1
2018-12-17T05:18:43.822Z,5.1
2018-12-17T05:19:45.481Z,5.1
2018-12-17T05:20:48.763Z,5.2
2018-12-17T05:21:50.520Z,5.1
2018-12-17T05:22:52.123Z,5.1
2018-12-17T05:23:53.714Z,5.1
2018-12-17T05:24:55.289Z,5.2
2018-12-17T05:25:56.945Z,5.2
2018-12-17T05:26:58.365Z,5.2
2018-12-17T05:28:00.007Z,5.2
2018-12-17T05:29:01.616Z,5.2
2018-12-17T05:30:03.250Z,5.2
2018-12-17T05:31:04.861Z,5.3
2018-12-17T05:32:06.449Z,5.3
2018-12-17T05:33:07.968Z,5.2
2018-12-17T05:34:09.803Z,5.2
2018-12-17T05:35:11.483Z,5.2
2018-12-17T05:36:13.151Z,5.2
2018-12-17T05:37:14.909Z,5.3
2018-12-17T05:38:16.542Z,5.2
2018-12-17T05:39:18.227Z,5.2
2018-12-17T05:40:19.921Z,5.2
2018-12-17T05:41:21.609Z,5.3
2018-12-17T05:42:23.324Z,5.3
2018-12-17T05:43:25.074Z,5.3
2018-12-17T05:44:26.755Z,5.3
2018-12-17T05:45:28.454Z,5.3
2018-12-17T05:46:30.146Z,5.2
2018-12-17T05:47:31.874Z,5.3
2018-12-17T05:48:33.554Z,5.2
2018-12-17T05:49:35.199Z,5.2
2018-12-17T05:50:36.880Z,5.2
2018-12-17T05:51:38.613Z,5.2
2018-12-17T05:52:40.265Z,5.2
2018-12-17T05:53:41.898Z,5.1
2018-12-17T05:54:43.483Z,5.1
2018-12-17T05:55:44.935Z,5.1
2018-12-17T05:56:46.343Z,5.1
2018-12-17T05:57:47.852Z,5.1
2018-12-17T05:58:49.275Z,5.1
2018-12-17T05:59:50.987Z,5.1
2018-12-17T06:00:52.412Z,5.1
2018-12-17T06:01:53.816Z,5.0
2018-12-17T06:02:55.485Z,5.0
2018-12-17T06:03:57.127Z,5.0
2018-12-17T06:04:58.743Z,5.0
2018-12-17T06:06:00.310Z,4.9
2018-12-17T06:07:02.022Z,4.9
2018-12-17T06:08:03.717Z,4.9
2018-12-17T06:09:05.425Z,4.9
2018-12-17T06:10:07.051Z,4.9
2018-12-17T06:11:08.811Z,5.0
2018-12-17T06:12:10.353Z,5.0
2018-12-17T06:13:11.851Z,5.0
2018-12-17T06:14:13.529Z,5.0
2018-12-17T06:15:14.918Z,5.0
2018-12-17T06:16:16.403Z,5.0
2018-12-17T06:17:17.971Z,5.0
2018-12-17T06:18:19.712Z,5.0
2018-12-17T06:19:21.362Z,5.0
2018-12-17T06:20:23.081Z,4.9
2018-12-17T06:21:24.766Z,5.0
2018-12-17T06:22:26.445Z,5.0
2018-12-17T06:23:27.978Z,5.0
2018-12-17T06:24:29.745Z,4.9
2018-12-17T06:25:31.393Z,5.0
2018-12-17T06:26:32.848Z,5.0
2018-12-17T06:27:36.897Z,4.9
2018-12-17T06:28:35.917Z,5.0
2018-12-17T06:29:37.405Z,4.9
2018-12-17T06:30:38.890Z,4.9
2018-12-17T06:31:40.362Z,4.9
2018-12-17T06:32:42.023Z,4.9
2018-12-17T06:33:43.649Z,4.9
2018-12-17T06:34:45.165Z,4.9
2018-12-17T06:35:46.647Z,5.0
2018-12-17T06:36:48.147Z,4.9
2018-12-17T06:37:49.541Z,4.9
2018-12-17T06:38:51.004Z,4.9
2018-12-17T06:39:52.544Z,5.0
2018-12-17T06:40:53.963Z,4.9
2018-12-17T06:41:55.410Z,4.9
2018-12-17T06:42:56.856Z,4.9
2018-12-17T06:43:58.262Z,5.0
2018-12-17T06:44:59.685Z,4.9
2018-12-17T06:46:01.168Z,5.0
2018-12-17T06:47:02.652Z,5.0
2018-12-17T06:48:04.070Z,4.9
2018-12-17T06:49:05.617Z,5.0
2018-12-17T06:50:07.221Z,5.0
2018-12-17T06:51:08.673Z,5.1
2018-12-17T06:52:10.137Z,5.0
2018-12-17T06:53:11.645Z,5.0
2018-12-17T06:54:13.104Z,5.1
2018-12-17T06:55:14.635Z,5.1
2018-12-17T06:56:16.121Z,5.1
2018-12-17T06:57:17.641Z,5.2
2018-12-17T06:58:19.151Z,5.1
2018-12-17T06:59:20.738Z,5.2
2018-12-17T07:00:22.213Z,5.2
2018-12-17T07:01:23.680Z,5.3
2018-12-17T07:02:25.106Z,5.2
2018-12-17T07:03:26.596Z,5.3
2018-12-17T07:04:28.132Z,5.3
2018-12-17T07:05:29.622Z,5.3
2018-12-17T07:06:31.046Z,5.3
2018-12-17T07:07:32.661Z,5.4
2018-12-17T07:08:34.145Z,5.5
2018-12-17T07:09:35.706Z,5.5
2018-12-17T07:10:37.145Z,5.6
2018-12-17T07:11:38.661Z,5.5
2018-12-17T07:12:40.082Z,5.6
2018-12-17T07:13:41.515Z,5.5
2018-12-17T07:14:43.048Z,5.6
2018-12-17T07:15:44.585Z,5.6
2018-12-17T07:16:46.085Z,5.6
2018-12-17T07:17:47.639Z,5.6
2018-12-17T07:18:49.128Z,5.7
2018-12-17T07:19:50.787Z,5.6
2018-12-17T07:20:52.241Z,5.8
2018-12-17T07:21:53.795Z,5.7
2018-12-17T07:22:55.353Z,5.7
2018-12-17T07:23:58.943Z,5.6
2018-12-17T07:24:58.538Z,5.7
2018-12-17T07:26:00.098Z,5.7
2018-12-17T07:27:01.740Z,5.8
2018-12-17T07:28:03.176Z,5.7
2018-12-17T07:29:04.772Z,5.6
2018-12-17T07:30:06.215Z,5.7
2018-12-17T07:31:07.740Z,5.7
2018-12-17T07:32:09.233Z,5.7
2018-12-17T07:33:10.613Z,5.6
2018-12-17T07:34:12.177Z,5.7
2018-12-17T07:35:13.731Z,5.7
2018-12-17T07:36:15.167Z,5.7
2018-12-17T07:37:16.631Z,5.8
2018-12-17T07:38:18.249Z,5.7
2018-12-17T07:39:19.718Z,5.7
2018-12-17T07:40:21.149Z,5.6
2018-12-17T07:41:22.575Z,5.6
2018-12-17T07:42:24.019Z,5.7
2018-12-17T07:43:25.471Z,5.7
2018-12-17T07:44:27.164Z,5.7
2018-12-17T07:45:28.751Z,5.7
2018-12-17T07:46:30.170Z,5.8
2018-12-17T07:47:31.649Z,5.7
2018-12-17T07:48:33.174Z,5.8
2018-12-17T07:49:34.681Z,5.8
2018-12-17T07:50:36.227Z,5.8
2018-12-17T07:51:37.647Z,5.8
2018-12-17T07:52:39.071Z,5.8
2018-12-17T07:53:40.688Z,5.9
2018-12-17T07:54:42.202Z,5.8
2018-12-17T07:55:43.850Z,5.8
2018-12-17T07:56:45.402Z,5.8
2018-12-17T07:57:46.837Z,5.8
2018-12-17T07:58:48.412Z,5.9
2018-12-17T07:59:56.508Z,5.9
2018-12-17T08:00:51.458Z,6.0
2018-12-17T08:01:52.878Z,5.9
2018-12-17T08:02:54.396Z,5.9
2018-12-17T08:03:55.894Z,6.0
2018-12-17T08:04:57.344Z,6.0
2018-12-17T08:05:58.815Z,6.1
2018-12-17T08:07:00.335Z,6.0
2018-12-17T08:08:01.868Z,6.0
2018-12-17T08:09:03.176Z,6.0
2018-12-17T08:10:04.703Z,6.1
2018-12-17T08:11:06.267Z,6.1
2018-12-17T08:12:07.732Z,6.1
2018-12-17T08:13:09.367Z,6.1
2018-12-17T08:14:10.795Z,6.0
2018-12-17T08:15:12.275Z,6.1
2018-12-17T08:16:13.720Z,6.0
2018-12-17T08:17:15.308Z,6.0
2018-12-17T08:18:16.815Z,6.1
2018-12-17T08:19:18.256Z,6.0
2018-12-17T08:20:19.925Z,6.1
2018-12-17T08:21:21.506Z,6.2
2018-12-17T08:22:23.136Z,6.2
2018-12-17T08:23:24.651Z,6.3
2018-12-17T08:24:26.245Z,6.3
2018-12-17T08:25:27.743Z,6.2
2018-12-17T08:26:29.315Z,6.3
2018-12-17T08:27:30.756Z,6.2
2018-12-17T08:28:32.339Z,6.3
2018-12-17T08:29:33.861Z,6.3
2018-12-17T08:30:35.320Z,6.3
2018-12-17T08:31:36.969Z,6.4
2018-12-17T08:32:38.574Z,6.3
2018-12-17T08:33:40.034Z,6.4
2018-12-17T08:34:41.712Z,6.5
2018-12-17T08:35:43.212Z,6.5
2018-12-17T08:36:44.902Z,6.5
2018-12-17T08:37:46.384Z,6.5
2018-12-17T08:38:48.048Z,6.5
2018-12-17T08:39:49.606Z,6.6
2018-12-17T08:40:51.237Z,6.7
2018-12-17T08:41:52.816Z,6.6
2018-12-17T08:42:54.615Z,6.7
2018-12-17T08:43:56.219Z,6.7
2018-12-17T08:44:57.687Z,6.7
2018-12-17T08:45:59.318Z,6.8
2018-12-17T08:47:01.030Z,6.7
2018-12-17T08:48:02.646Z,6.9
2018-12-17T08:49:04.549Z,6.9
2018-12-17T08:50:06.249Z,6.9
2018-12-17T08:51:07.928Z,6.9
2018-12-17T08:52:09.656Z,6.9
2018-12-17T08:53:11.387Z,6.9
2018-12-17T08:54:12.912Z,6.9
2018-12-17T08:55:14.765Z,6.8
2018-12-17T08:56:16.466Z,6.9
2018-12-17T08:57:18.076Z,6.9
2018-12-17T08:58:19.738Z,6.8
2018-12-17T08:59:21.366Z,6.8
2018-12-17T09:00:23.052Z,6.9
2018-12-17T09:01:24.742Z,6.7
2018-12-17T09:02:26.426Z,6.8
2018-12-17T09:03:28.110Z,6.8
2018-12-17T09:04:29.805Z,6.8
2018-12-17T09:05:31.533Z,6.8
2018-12-17T09:06:33.314Z,6.7
2018-12-17T09:07:35.027Z,6.8
2018-12-17T09:08:36.671Z,6.7
2018-12-17T09:09:38.373Z,6.8
2018-12-17T09:10:40.098Z,6.7
2018-12-17T09:11:41.742Z,6.7
2018-12-17T09:12:43.268Z,6.6
2018-12-17T09:13:44.902Z,6.6
2018-12-17T09:14:46.656Z,6.7
2018-12-17T09:15:48.351Z,6.6
2018-12-17T09:16:49.984Z,6.6
2018-12-17T09:17:51.627Z,6.6
2018-12-17T09:18:53.331Z,6.6
2018-12-17T09:19:54.918Z,6.7
2018-12-17T09:20:56.495Z,6.6
2018-12-17T09:21:58.165Z,6.7
2018-12-17T09:22:59.867Z,6.7
2018-12-17T09:24:01.534Z,6.7
2018-12-17T09:25:03.101Z,6.7
2018-12-17T09:26:04.722Z,6.6
2018-12-17T09:27:06.331Z,6.5
2018-12-17T09:28:08.037Z,6.5
2018-12-17T09:29:09.616Z,6.5
2018-12-17T09:30:17.966Z,6.5
2018-12-17T09:31:12.809Z,6.5
2018-12-17T09:32:14.456Z,6.5
2018-12-17T09:33:16.143Z,6.5
2018-12-17T09:34:17.796Z,6.6
2018-12-17T09:35:19.468Z,6.6
2018-12-17T09:36:21.152Z,6.7
2018-12-17T09:37:22.665Z,6.6
2018-12-17T09:38:24.365Z,6.8
2018-12-17T09:39:26.034Z,6.8
2018-12-17T09:40:27.674Z,6.7
2018-12-17T09:41:29.391Z,6.8
2018-12-17T09:42:31.056Z,6.8
2018-12-17T09:43:32.745Z,6.7
2018-12-17T09:44:34.360Z,6.9
2018-12-17T09:45:36.044Z,6.9
2018-12-17T09:46:37.691Z,6.9
2018-12-17T09:47:39.396Z,6.9
2018-12-17T09:48:41.129Z,7.0
2018-12-17T09:49:42.839Z,7.0
2018-12-17T09:50:44.512Z,7.1
2018-12-17T09:51:46.217Z,7.1
2018-12-17T09:52:47.970Z,7.2
2018-12-17T09:53:49.345Z,7.2
2018-12-17T09:54:51.096Z,7.2
2018-12-17T09:55:52.741Z,7.3
2018-12-17T09:56:54.461Z,7.3
2018-12-17T09:57:56.198Z,7.2
2018-12-17T09:58:57.873Z,7.3
2018-12-17T09:59:59.549Z,7.3
2018-12-17T10:01:01.278Z,7.3
2018-12-17T10:02:03.025Z,7.3
2018-12-17T10:03:04.770Z,7.3
2018-12-17T10:04:06.531Z,7.3
2018-12-17T10:05:08.172Z,7.2
2018-12-17T10:06:09.841Z,7.2
2018-12-17T10:07:11.519Z,7.2
2018-12-17T10:08:13.053Z,7.3
2018-12-17T10:09:14.549Z,7.2
2018-12-17T10:10:16.105Z,7.2
2018-12-17T10:11:17.823Z,7.2
2018-12-17T10:12:19.474Z,7.2
2018-12-17T10:13:21.013Z,7.1
2018-12-17T10:14:22.630Z,7.1
2018-12-17T10:15:24.343Z,7.2
2018-12-17T10:16:25.992Z,7.2
2018-12-17T10:17:27.744Z,7.2
2018-12-17T10:18:29.420Z,7.3
2018-12-17T10:19:31.167Z,7.2
2018-12-17T10:20:32.541Z,7.2
2018-12-17T10:21:34.295Z,7.3
2018-12-17T10:22:36.101Z,7.2
2018-12-17T10:23:37.787Z,7.3
2018-12-17T10:24:39.430Z,7.3
2018-12-17T10:25:41.149Z,7.3
2018-12-17T10:26:42.812Z,7.3
2018-12-17T10:27:44.561Z,7.4
2018-12-17T10:28:46.349Z,7.5
2018-12-17T10:29:48.068Z,7.4
2018-12-17T10:30:49.812Z,7.5
2018-12-17T10:31:51.468Z,7.5
2018-12-17T10:32:53.195Z,7.5
2018-12-17T10:33:54.833Z,7.5
2018-12-17T10:34:56.559Z,7.6
2018-12-17T10:35:58.176Z,7.5
2018-12-17T10:36:59.871Z,7.5
2018-12-17T10:38:01.615Z,7.5
2018-12-17T10:39:03.262Z,7.4
2018-12-17T10:40:04.984Z,7.5
2018-12-17T10:41:06.698Z,7.5
2018-12-17T10:42:08.193Z,7.5
2018-12-17T10:43:09.685Z,7.6
2018-12-17T10:44:11.297Z,7.5
2018-12-17T10:45:13.007Z,7.5
2018-12-17T10:46:14.677Z,7.5
2018-12-17T10:47:16.448Z,7.7
2018-12-17T10:48:18.132Z,7.7
2018-12-17T10:49:19.838Z,7.8
2018-12-17T10:50:21.532Z,7.7
2018-12-17T10:51:23.229Z,7.7
2018-12-17T10:52:24.983Z,7.7
2018-12-17T10:53:26.704Z,7.8
2018-12-17T10:54:28.419Z,7.8
2018-12-17T10:55:30.104Z,7.9
2018-12-17T10:56:31.766Z,7.8
2018-12-17T10:57:33.450Z,7.9
2018-12-17T10:58:35.087Z,8.0
2018-12-17T10:59:36.841Z,8.0
2018-12-17T11:00:39.484Z,8.2
2018-12-17T11:01:40.159Z,8.2
2018-12-17T11:02:41.907Z,8.2
2018-12-17T11:03:43.433Z,8.3
2018-12-17T11:04:45.182Z,8.2
2018-12-17T11:05:46.954Z,8.2
2018-12-17T11:06:48.603Z,8.2
2018-12-17T11:07:50.371Z,8.2
2018-12-17T11:08:51.860Z,8.0
2018-12-17T11:09:53.416Z,8.0
2018-12-17T11:10:55.095Z,8.0
2018-12-17T11:11:56.828Z,8.0
2018-12-17T11:12:58.230Z,8.0
2018-12-17T11:13:59.961Z,8.1
2018-12-17T11:15:01.567Z,8.1
2018-12-17T11:16:03.222Z,8.2
2018-12-17T11:17:04.744Z,8.2
2018-12-17T11:18:06.461Z,8.2
2018-12-17T11:19:07.998Z,8.2
2018-12-17T11:20:09.576Z,8.3
2018-12-17T11:21:11.131Z,8.2
2018-12-17T11:22:12.775Z,8.3
2018-12-17T11:23:14.375Z,8.1
2018-12-17T11:24:15.992Z,8.2
2018-12-17T11:25:17.824Z,8.1
2018-12-17T11:26:19.327Z,8.0
2018-12-17T11:27:21.037Z,8.1
2018-12-17T11:28:22.682Z,8.1
2018-12-17T11:29:24.100Z,8.0
2018-12-17T11:30:25.774Z,8.0
2018-12-17T11:31:27.320Z,8.1
2018-12-17T11:32:28.908Z,8.1
2018-12-17T11:33:30.564Z,8.1
2018-12-17T11:34:32.008Z,8.1
2018-12-17T11:35:33.597Z,8.1
2018-12-17T11:36:35.156Z,8.0
2018-12-17T11:37:36.809Z,8.0
2018-12-17T11:38:38.504Z,8.0
2018-12-17T11:39:40.217Z,8.0
2018-12-17T11:40:42.006Z,7.9
2018-12-17T11:41:43.490Z,7.9
2018-12-17T11:42:45.015Z,8.1
2018-12-17T11:43:46.586Z,8.0
2018-12-17T11:44:48.248Z,8.0
2018-12-17T11:45:49.868Z,8.0
2018-12-17T11:46:51.429Z,8.0
2018-12-17T11:47:53.095Z,8.1
2018-12-17T11:48:54.783Z,7.9
2018-12-17T11:49:56.439Z,7.9
2018-12-17T11:50:58.252Z,7.9
2018-12-17T11:52:01.224Z,7.9
2018-12-17T11:53:01.601Z,7.7
2018-12-17T11:54:03.130Z,7.6
2018-12-17T11:55:04.786Z,7.5
2018-12-17T11:56:06.398Z,7.5
2018-12-17T11:57:08.100Z,7.5
2018-12-17T11:58:09.708Z,7.6
2018-12-17T11:59:11.454Z,7.6
2018-12-17T12:00:13.190Z,7.5
2018-12-17T12:01:14.925Z,7.6
2018-12-17T12:02:16.603Z,7.7
2018-12-17T12:03:18.172Z,7.7
2018-12-17T12:04:19.828Z,7.7
2018-12-17T12:05:21.548Z,7.7
2018-12-17T12:06:23.214Z,7.7
2018-12-17T12:07:24.921Z,7.7
2018-12-17T12:08:26.693Z,7.7
2018-12-17T12:09:28.438Z,7.8
2018-12-17T12:10:30.142Z,7.8
2018-12-17T12:11:31.910Z,7.8
2018-12-17T12:12:33.588Z,7.8
2018-12-17T12:13:35.250Z,7.9
2018-12-17T12:14:36.870Z,7.8
2018-12-17T12:15:38.512Z,7.8
2018-12-17T12:16:40.205Z,7.8
2018-12-17T12:17:41.704Z,7.8
2018-12-17T12:18:43.493Z,7.8
2018-12-17T12:19:45.178Z,7.9
2018-12-17T12:20:46.791Z,7.9
2018-12-17T12:21:48.492Z,8.1
2018-12-17T12:22:50.120Z,8.0
2018-12-17T12:23:51.834Z,8.0
2018-12-17T12:24:53.578Z,7.9
2018-12-17T12:25:55.217Z,7.9
2018-12-17T12:26:56.862Z,7.9
2018-12-17T12:27:58.475Z,7.9
2018-12-17T12:29:00.067Z,7.9
2018-12-17T12:30:01.691Z,7.9
2018-12-17T12:31:03.348Z,7.9
2018-12-17T12:32:05.007Z,8.0
2018-12-17T12:33:06.655Z,7.9
2018-12-17T12:34:08.298Z,7.9
2018-12-17T12:35:09.985Z,7.9
2018-12-17T12:36:11.674Z,7.9
2018-12-17T12:37:13.226Z,7.9
2018-12-17T12:38:14.893Z,7.9
2018-12-17T12:39:16.532Z,7.9
2018-12-17T12:40:18.179Z,7.9
2018-12-17T12:41:19.801Z,7.9
2018-12-17T12:42:21.399Z,7.9
2018-12-17T12:43:23.048Z,8.0
2018-12-17T12:44:24.642Z,8.0
2018-12-17T12:45:26.284Z,8.0
2018-12-17T12:46:27.879Z,7.9
2018-12-17T12:47:29.557Z,7.8
2018-12-17T12:48:31.150Z,7.9
2018-12-17T12:49:32.820Z,7.9
2018-12-17T12:50:34.452Z,7.8
2018-12-17T12:51:36.148Z,7.8
2018-12-17T12:52:37.934Z,7.8
2018-12-17T12:53:39.602Z,7.9
2018-12-17T12:54:41.301Z,7.9
2018-12-17T12:55:42.932Z,7.9
2018-12-17T12:56:44.643Z,7.9
2018-12-17T12:57:46.329Z,7.9
2018-12-17T12:58:48.045Z,8.1
2018-12-17T12:59:49.641Z,8.0
2018-12-17T13:00:51.247Z,7.9
2018-12-17T13:01:52.914Z,8.0
2018-12-17T13:02:54.418Z,8.1
2018-12-17T13:03:56.102Z,8.1
2018-12-17T13:04:57.942Z,8.1
2018-12-17T13:05:59.564Z,8.1
2018-12-17T13:07:01.309Z,8.1
2018-12-17T13:08:03.040Z,8.2
2018-12-17T13:09:04.742Z,8.2
2018-12-17T13:10:06.472Z,8.2
2018-12-17T13:11:08.238Z,8.3
2018-12-17T13:12:09.918Z,8.4
2018-12-17T13:13:11.663Z,8.4
2018-12-17T13:14:13.276Z,8.4
2018-12-17T13:15:14.992Z,8.5
2018-12-17T13:16:16.719Z,8.5
2018-12-17T13:17:18.454Z,8.6
2018-12-17T13:18:20.084Z,8.4
2018-12-17T13:19:21.827Z,8.5
2018-12-17T13:20:23.548Z,8.4
2018-12-17T13:21:25.214Z,8.4
2018-12-17T13:22:26.914Z,8.5
2018-12-17T13:23:28.554Z,8.4
2018-12-17T13:24:30.258Z,8.3
2018-12-17T13:25:31.922Z,8.3
2018-12-17T13:26:34.300Z,8.3
2018-12-17T13:27:36.014Z,8.3
2018-12-17T13:28:37.724Z,8.3
2018-12-17T13:29:39.385Z,8.2
2018-12-17T13:30:41.026Z,8.2
2018-12-17T13:31:42.574Z,8.2
2018-12-17T13:32:44.325Z,8.2
2018-12-17T13:33:46.006Z,8.1
2018-12-17T13:34:47.642Z,8.1
2018-12-17T13:35:49.399Z,8.1
2018-12-17T13:36:51.116Z,8.2
2018-12-17T13:37:52.875Z,8.3
2018-12-17T13:38:54.684Z,8.2
2018-12-17T13:39:56.523Z,8.2
2018-12-17T13:40:58.176Z,8.2
2018-12-17T13:41:59.781Z,8.2
2018-12-17T13:43:01.446Z,8.1
2018-12-17T13:44:03.034Z,8.1
2018-12-17T13:45:04.654Z,8.1
2018-12-17T13:46:06.305Z,8.0
2018-12-17T13:47:08.013Z,8.0
2018-12-17T13:48:09.577Z,8.1
2018-12-17T13:49:51.109Z,8.1
2018-12-17T13:50:52.507Z,8.1
2018-12-17T13:51:53.914Z,8.2
2018-12-17T13:52:55.332Z,8.2
2018-12-17T13:53:56.788Z,8.1
2018-12-17T13:54:58.258Z,8.0
2018-12-17T13:56:00.003Z,8.1
2018-12-17T13:57:01.739Z,8.1
2018-12-17T13:58:03.546Z,8.1
2018-12-17T13:59:05.332Z,8.0
2018-12-17T14:00:07.097Z,7.9
2018-12-17T14:01:08.756Z,8.0
2018-12-17T14:02:10.458Z,8.1
2018-12-17T14:03:12.250Z,8.1
2018-12-17T14:04:13.967Z,8.0
2018-12-17T14:05:15.705Z,8.1
2018-12-17T14:06:17.454Z,8.0
2018-12-17T14:07:19.151Z,8.1
2018-12-17T14:08:20.891Z,8.1
2018-12-17T14:09:22.549Z,8.0
2018-12-17T14:10:24.260Z,7.8